Terminal Aerodrome Forecast
Issued by NWS Upton, NY

Home | Current Version | Previous Version | Text Only | Print | Product List | Glossary On
Versions: 1 2 3 4 5 6 7 8 9 10 11 12 13 14 15 16 17 18 19 20 21 22 23 24 25 26
000
FTUS41 KOKX 231100
TAFJFK
TAF
KJFK 231135Z 2312/2418 22008KT P6SM SCT250
     FM231600 18013KT P6SM SCT050 BKN250 PROB30 2323/2403 28015G30KT
      5SM TSRA BKN050CB
     FM240300 21007KT P6SM SCT050 BKN250 PROB30 2403/2405 5SM TSRA
      BKN050CB
     FM240600 VRB05KT P6SM BKN120
     FM240800 33006KT P6SM BKN200
     FM241000 36008KT 6SM -SHRA BKN050=

USA.gov is the U.S. government's official web portal to all federal, state and local government web resources and services.